Negril, Jamaica
Current Conditions -  °F | °C
As of 7:00 AM on Wednesday 22 Oct 2014 (Local Time) from MKJS Reporting Station
Broken Clouds Broken Clouds  
Wind Chill: 77°   Ceiling: 4200
Heat Index: 78°   Visibility: 6mi
Dew Point: 73°   Wind: 2mph
Humidity: 89%   Direction: NA
Pressure: 29.88"   Gusts: NA
Location:  18.27°N, 78.35°W
Report Text: MKJS 221200Z VRB02KT 9999 FEW022CB BKN042 25/23 Q1012
Loading
Personal Weather Stations






























Interactive Weather Map
Tropical Storm Tracking
New forecast layout! Learn more

10-Day Weather Forecast

Advertisements
Track Severe Weather on mobile